Time;durP1;ratioP1;P1;durP2;ratioP2;P2;SDS_P1;SDS_P2;PMS_P1;PMS_P2;Temp;Humidity;BMP_temperature;BMP_pressure;BME280_temperature;BME280_humidity;BME280_pressure;Samples;Min_cycle;Max_cycle;Signal;HPM_P1;HPM_P2
2022/11/20 00:01:15;;;;;;;18.27;10.60;;;0.50;99.90;;;;;;5124279;27;20043;-81
2022/11/20 00:03:41;;;;;;;15.68;10.07;;;0.50;99.90;;;;;;5123471;27;20047;-82
2022/11/20 00:06:10;;;;;;;17.98;10.32;;;0.60;99.90;;;;;;5125046;27;20471;-82
2022/11/20 00:08:36;;;;;;;13.55;8.73;;;0.60;99.90;;;;;;5106862;28;20494;-81
2022/11/20 00:11:07;;;;;;;17.27;9.80;;;0.60;99.90;;;;;;5108334;28;20046;-81
2022/11/20 00:13:33;;;;;;;17.88;9.25;;;1.50;99.90;;;;;;5106501;28;20100;-81
2022/11/20 00:16:00;;;;;;;16.23;9.60;;;0.60;99.90;;;;;;5107407;28;20045;-82
2022/11/20 00:18:27;;;;;;;15.13;9.57;;;0.60;99.90;;;;;;5124789;27;20035;-81
2022/11/20 00:20:53;;;;;;;19.23;9.98;;;1.20;99.90;;;;;;5073337;28;20039;-81
2022/11/20 00:23:19;;;;;;;14.90;8.80;;;0.60;99.90;;;;;;5108400;28;20122;-82
2022/11/20 00:25:45;;;;;;;15.43;9.13;;;0.60;99.90;;;;;;5123339;28;20130;-82
2022/11/20 00:28:11;;;;;;;16.58;9.02;;;0.60;99.90;;;;;;5127003;27;20134;-82
2022/11/20 00:30:37;;;;;;;13.98;8.55;;;0.70;99.90;;;;;;5126713;27;20471;-82
2022/11/20 00:33:02;;;;;;;13.98;8.40;;;0.70;99.90;;;;;;5127473;27;20094;-81
2022/11/20 00:35:28;;;;;;;14.30;9.00;;;0.70;99.90;;;;;;5127318;27;20109;-82
2022/11/20 00:37:54;;;;;;;16.85;9.05;;;0.70;99.90;;;;;;5093352;27;20133;-82
2022/11/20 00:40:19;;;;;;;14.90;8.23;;;0.70;99.90;;;;;;5094584;27;20038;-82
2022/11/20 00:42:45;;;;;;;12.63;8.45;;;0.70;99.90;;;;;;5109476;27;20057;-82
2022/11/20 00:45:10;;;;;;;13.85;8.07;;;0.70;99.90;;;;;;5093862;27;20041;-82
2022/11/20 00:47:36;;;;;;;13.23;7.57;;;0.80;99.90;;;;;;5109104;27;20053;-82
2022/11/20 00:50:02;;;;;;;11.05;7.30;;;0.70;99.90;;;;;;5093424;27;20043;-82
2022/11/20 00:52:28;;;;;;;13.98;8.27;;;0.80;99.90;;;;;;5109412;27;20144;-82
2022/11/20 00:54:53;;;;;;;13.30;8.05;;;0.80;99.90;;;;;;5093202;27;20064;-82
2022/11/20 00:57:19;;;;;;;15.20;8.30;;;0.80;99.90;;;;;;5127793;27;20042;-82
2022/11/20 00:59:45;;;;;;;16.10;8.30;;;0.80;99.90;;;;;;5091979;27;20107;-83
2022/11/20 01:02:10;;;;;;;11.07;7.22;;;0.80;99.90;;;;;;5127888;27;20039;-83
2022/11/20 01:04:36;;;;;;;12.85;7.78;;;0.90;99.90;;;;;;5108927;27;20134;-83
2022/11/20 01:07:01;;;;;;;12.65;7.50;;;0.80;99.90;;;;;;5127248;27;20058;-83
2022/11/20 01:09:27;;;;;;;12.07;7.32;;;0.80;99.90;;;;;;5092613;27;20042;-83
2022/11/20 01:11:53;;;;;;;13.77;7.38;;;0.90;99.90;;;;;;5126841;27;20457;-83
2022/11/20 01:14:19;;;;;;;18.60;7.60;;;0.90;99.90;;;;;;5110410;27;20053;-82
2022/11/20 01:16:48;;;;;;;10.75;6.95;;;0.90;99.90;;;;;;5128462;27;20628;-83
2022/11/20 01:19:18;;;;;;;12.30;7.35;;;0.90;99.90;;;;;;5131888;27;20363;-82
2022/11/20 01:21:46;;;;;;;16.40;8.10;;;0.90;99.90;;;;;;5112925;27;20045;-83
2022/11/20 01:24:14;;;;;;;13.25;7.05;;;0.90;99.90;;;;;;5113447;27;20046;-83
2022/11/20 01:26:41;;;;;;;14.68;8.20;;;0.90;99.90;;;;;;5112686;27;20041;-83
2022/11/20 01:29:12;;;;;;;12.52;7.35;;;1.00;99.90;;;;;;5130553;27;20046;-83
2022/11/20 01:31:38;;;;;;;11.70;7.25;;;0.90;99.90;;;;;;5131195;27;20075;-82
2022/11/20 01:34:16;;;;;;;11.15;7.35;;;1.90;99.90;;;;;;5129989;27;20043;-83
2022/11/20 01:36:42;;;;;;;13.60;7.57;;;1.00;99.90;;;;;;5114002;27;20097;-83
2022/11/20 01:39:14;;;;;;;13.95;7.25;;;1.00;99.90;;;;;;5112599;27;20146;-83
2022/11/20 01:44:58;;;;;;;12.80;7.55;;;2.10;99.90;;;;;;5130524;27;20058;-83
2022/11/20 01:47:35;;;;;;;12.48;7.93;;;1.00;99.90;;;;;;5111805;27;20050;-83
2022/11/20 01:50:22;;;;;;;11.10;7.47;;;1.00;99.90;;;;;;5130404;27;20046;-83
2022/11/20 01:52:56;;;;;;;13.65;7.22;;;1.10;99.90;;;;;;5130478;27;20392;-83
2022/11/20 01:55:25;;;;;;;11.55;7.18;;;1.10;99.90;;;;;;5129143;27;20120;-83
2022/11/20 01:57:51;;;;;;;14.60;7.75;;;1.00;99.90;;;;;;5113864;27;20085;-83
2022/11/20 02:00:19;;;;;;;13.32;7.65;;;1.40;99.90;;;;;;5111852;27;20299;-83
2022/11/20 02:03:13;;;;;;;12.43;7.82;;;1.10;99.90;;;;;;5113299;27;20047;-83
2022/11/20 02:05:56;;;;;;;12.77;6.95;;;1.10;99.90;;;;;;5102906;27;20046;-83
2022/11/20 02:08:23;;;;;;;12.57;7.13;;;1.10;99.90;;;;;;5128583;27;20091;-83
2022/11/20 02:10:49;;;;;;;13.20;7.18;;;1.10;99.90;;;;;;5113524;27;20035;-83
2022/11/20 02:15:59;;;;;;;14.68;7.93;;;1.10;99.90;;;;;;5129856;27;20075;-83
2022/11/20 02:18:25;;;;;;;13.48;7.40;;;1.20;99.90;;;;;;5112824;27;20477;-83
2022/11/20 02:21:27;;;;;;;12.32;7.13;;;1.20;99.90;;;;;;5111861;27;20035;-83
2022/11/20 02:23:59;;;;;;;10.85;7.68;;;1.20;99.90;;;;;;5057065;27;20100;-83
2022/11/20 02:26:27;;;;;;;12.57;7.05;;;1.20;99.90;;;;;;5111657;27;20467;-83
2022/11/20 02:28:54;;;;;;;10.55;6.47;;;1.20;99.90;;;;;;5129944;27;20417;-83
2022/11/20 02:31:19;;;;;;;10.90;7.30;;;1.20;99.90;;;;;;5112641;27;20046;-83
2022/11/20 02:33:45;;;;;;;10.95;6.75;;;1.20;99.90;;;;;;5128642;27;20046;-83
2022/11/20 02:36:15;;;;;;;10.40;6.13;;;1.20;99.90;;;;;;5113472;27;20055;-82
2022/11/20 02:38:42;;;;;;;10.55;6.43;;;2.40;99.90;;;;;;5128065;27;20070;-83
2022/11/20 02:41:08;;;;;;;9.90;6.32;;;1.30;99.90;;;;;;5129638;27;20042;-83
2022/11/20 02:43:34;;;;;;;11.45;6.47;;;1.20;99.90;;;;;;5093833;27;20468;-83
2022/11/20 02:45:59;;;;;;;10.27;6.25;;;1.30;99.90;;;;;;5095401;27;20188;-83
2022/11/20 02:48:25;;;;;;;10.65;6.07;;;1.30;99.90;;;;;;5112350;27;20132;-84
2022/11/20 02:50:51;;;;;;;12.93;6.88;;;1.30;99.90;;;;;;5111477;27;20488;-83
2022/11/20 02:53:16;;;;;;;12.52;6.80;;;1.30;99.90;;;;;;5129844;27;20049;-83
2022/11/20 02:55:42;;;;;;;13.52;7.20;;;1.30;99.90;;;;;;5111000;27;20137;-83
2022/11/20 02:58:08;;;;;;;10.05;6.25;;;1.30;99.90;;;;;;5095333;27;20422;-83
2022/11/20 03:00:35;;;;;;;8.52;5.97;;;1.30;99.90;;;;;;5110582;27;20049;-83
2022/11/20 03:03:01;;;;;;;10.95;7.30;;;1.30;99.90;;;;;;5112199;27;20052;-83
2022/11/20 03:05:26;;;;;;;13.95;6.90;;;1.40;99.90;;;;;;5128897;27;20460;-83
2022/11/20 03:07:52;;;;;;;12.23;7.10;;;1.30;99.90;;;;;;5111138;27;20042;-83
2022/11/20 03:10:18;;;;;;;11.75;6.78;;;1.30;99.90;;;;;;5112382;27;20038;-83
2022/11/20 03:12:43;;;;;;;11.43;6.80;;;1.40;99.90;;;;;;5110713;27;20054;-83
2022/11/20 03:15:10;;;;;;;11.20;6.43;;;1.40;99.90;;;;;;5095210;27;20125;-83
2022/11/20 03:17:35;;;;;;;11.88;6.82;;;1.50;99.90;;;;;;5076476;27;20049;-83
2022/11/20 03:20:02;;;;;;;14.75;6.95;;;1.40;99.90;;;;;;5128797;27;20038;-83
2022/11/20 03:22:30;;;;;;;12.95;7.40;;;1.30;99.90;;;;;;5110627;27;20043;-83
2022/11/20 03:24:55;;;;;;;11.43;7.22;;;1.40;99.90;;;;;;5111588;27;20443;-83
2022/11/20 03:27:22;;;;;;;12.57;7.18;;;1.30;99.90;;;;;;5112095;27;20091;-82
2022/11/20 03:29:48;;;;;;;10.63;6.80;;;1.30;99.90;;;;;;5109929;27;20046;-83
2022/11/20 03:32:13;;;;;;;11.10;7.00;;;2.00;99.90;;;;;;5111997;27;20045;-83
2022/11/20 03:34:39;;;;;;;14.77;6.55;;;1.30;99.90;;;;;;5093158;27;20039;-84
2022/11/20 03:37:04;;;;;;;11.13;6.68;;;1.30;99.90;;;;;;5111469;27;20151;-83
2022/11/20 03:39:30;;;;;;;11.45;6.13;;;1.40;99.90;;;;;;5109827;27;20058;-81
2022/11/20 03:41:56;;;;;;;9.25;5.78;;;1.30;99.90;;;;;;5093851;27;20074;-83
2022/11/20 03:44:22;;;;;;;13.07;6.90;;;1.30;99.90;;;;;;5128455;27;20046;-81
2022/11/20 03:46:48;;;;;;;10.70;6.47;;;1.40;99.90;;;;;;5126934;27;20043;-81
2022/11/20 03:49:13;;;;;;;11.77;6.70;;;1.40;99.90;;;;;;5095266;27;20409;-82
2022/11/20 03:51:39;;;;;;;12.68;6.80;;;1.40;99.90;;;;;;5092841;27;20084;-82
2022/11/20 03:54:08;;;;;;;10.43;6.70;;;1.30;99.90;;;;;;5094571;27;20050;-82
2022/11/20 03:56:37;;;;;;;12.73;6.25;;;1.30;99.90;;;;;;5127069;27;20054;-82
2022/11/20 03:59:03;;;;;;;9.95;6.18;;;1.40;99.90;;;;;;5127707;27;20117;-82
2022/11/20 04:01:32;;;;;;;11.07;7.15;;;1.40;99.90;;;;;;5111915;27;20049;-82
2022/11/20 04:03:58;;;;;;;14.05;6.97;;;1.30;99.90;;;;;;5126732;27;20043;-82
2022/11/20 04:06:27;;;;;;;11.18;6.35;;;1.30;99.90;;;;;;5129047;27;20041;-82
2022/11/20 04:08:57;;;;;;;11.13;6.53;;;1.30;99.90;;;;;;5109212;27;20046;-82
2022/11/20 04:11:24;;;;;;;10.55;6.57;;;1.40;99.90;;;;;;5128123;27;20493;-82
2022/11/20 04:13:52;;;;;;;9.77;6.35;;;1.40;99.90;;;;;;5126964;27;20046;-82
2022/11/20 04:16:19;;;;;;;10.95;6.97;;;1.40;99.90;;;;;;5110593;27;20401;-82
2022/11/20 04:18:45;;;;;;;10.82;7.10;;;1.40;99.90;;;;;;5111620;27;20568;-82
2022/11/20 04:21:11;;;;;;;10.23;6.50;;;1.40;99.90;;;;;;5126337;27;20081;-82
2022/11/20 04:23:37;;;;;;;11.77;6.60;;;1.40;99.90;;;;;;5111544;27;20066;-82
2022/11/20 04:26:08;;;;;;;11.27;6.57;;;1.40;99.90;;;;;;5126941;27;20125;-82
2022/11/20 04:28:34;;;;;;;11.52;6.75;;;1.40;99.90;;;;;;5128045;27;20455;-82
2022/11/20 04:31:11;;;;;;;11.88;7.18;;;1.40;99.90;;;;;;5093586;27;20039;-82
2022/11/20 04:33:38;;;;;;;9.05;6.32;;;1.40;99.90;;;;;;5093796;27;20055;-82
2022/11/20 04:36:06;;;;;;;10.80;7.13;;;1.40;99.90;;;;;;5111225;27;20043;-82
2022/11/20 04:38:32;;;;;;;10.05;6.32;;;1.40;99.90;;;;;;5109372;27;20123;-82
2022/11/20 04:41:02;;;;;;;11.55;6.88;;;1.40;99.90;;;;;;5094484;27;20130;-82
2022/11/20 04:43:28;;;;;;;13.35;7.57;;;1.40;99.90;;;;;;5126262;27;20042;-82
2022/11/20 04:45:55;;;;;;;11.48;7.03;;;1.40;99.90;;;;;;5110777;27;20439;-82
2022/11/20 04:48:21;;;;;;;10.15;6.70;;;1.40;99.90;;;;;;5127524;27;20050;-82
2022/11/20 04:50:46;;;;;;;9.60;6.80;;;2.30;99.90;;;;;;5110320;27;20568;-82
2022/11/20 04:53:12;;;;;;;14.30;6.55;;;1.40;99.90;;;;;;5115952;27;20123;-82
2022/11/20 04:55:38;;;;;;;11.38;7.43;;;1.40;99.90;;;;;;5112949;27;20520;-82
2022/11/20 04:58:04;;;;;;;11.75;6.80;;;1.40;99.90;;;;;;5098591;27;20043;-82
2022/11/20 05:00:29;;;;;;;10.27;6.70;;;1.40;99.90;;;;;;5130612;27;20043;-82
2022/11/20 05:02:55;;;;;;;9.43;6.10;;;1.40;99.90;;;;;;5114749;27;20597;-82
2022/11/20 05:05:21;;;;;;;9.10;6.57;;;1.40;99.90;;;;;;5113603;27;20045;-82
2022/11/20 05:07:46;;;;;;;9.55;5.78;;;1.40;99.90;;;;;;5113970;27;20077;-82
2022/11/20 05:10:12;;;;;;;13.20;7.25;;;1.40;99.90;;;;;;5098001;27;20034;-82
2022/11/20 05:12:38;;;;;;;9.15;5.82;;;1.40;99.90;;;;;;5095693;27;20420;-82
2022/11/20 05:15:04;;;;;;;11.18;6.97;;;1.40;99.90;;;;;;5115464;27;20039;-82
2022/11/20 05:17:29;;;;;;;10.57;6.82;;;1.40;99.90;;;;;;5112692;27;20129;-82
2022/11/20 05:19:55;;;;;;;11.77;7.38;;;2.40;99.90;;;;;;5131593;27;20061;-82
2022/11/20 05:22:21;;;;;;;10.90;5.97;;;1.50;99.90;;;;;;5096298;27;20045;-82
2022/11/20 05:24:46;;;;;;;11.65;7.53;;;2.40;99.90;;;;;;5114645;27;20134;-82
2022/11/20 05:27:12;;;;;;;8.25;6.72;;;1.50;99.90;;;;;;5115518;27;20050;-82
2022/11/20 05:29:37;;;;;;;14.85;8.25;;;1.50;99.90;;;;;;5130089;27;20079;-82
2022/11/20 05:32:05;;;;;;;11.95;7.20;;;1.50;99.90;;;;;;5098508;27;20442;-82
2022/11/20 05:34:31;;;;;;;10.93;7.13;;;1.50;99.90;;;;;;5129611;27;20049;-82
2022/11/20 05:36:57;;;;;;;10.73;7.32;;;1.50;99.90;;;;;;5131842;27;20051;-82
2022/11/20 05:39:22;;;;;;;11.02;6.88;;;1.50;99.90;;;;;;5095563;27;20039;-82
2022/11/20 05:42:29;;;;;;;12.00;7.32;;;1.50;99.90;;;;;;5130832;27;20046;-82
2022/11/20 05:44:33;;;;;;;12.20;7.10;;;2.50;99.90;;;;;;5131424;27;20176;-82
2022/11/20 05:46:59;;;;;;;12.55;7.68;;;1.50;99.90;;;;;;5078924;27;20074;-82
2022/11/20 05:49:25;;;;;;;11.35;6.63;;;1.50;99.90;;;;;;5115040;27;20064;-82
2022/11/20 05:51:50;;;;;;;10.65;7.20;;;2.40;99.90;;;;;;5095894;27;20445;-82
2022/11/20 05:54:16;;;;;;;14.82;7.07;;;1.50;99.90;;;;;;5131594;27;20528;-82
2022/11/20 05:56:42;;;;;;;8.80;6.43;;;1.50;99.90;;;;;;5096652;27;20051;-82
2022/11/20 05:59:07;;;;;;;11.63;7.15;;;1.50;99.90;;;;;;5080188;27;20050;-82
2022/11/20 06:01:33;;;;;;;10.93;6.75;;;1.50;99.90;;;;;;5130899;27;20054;-82
2022/11/20 06:03:59;;;;;;;13.75;6.82;;;1.50;99.90;;;;;;5096290;27;20057;-82
2022/11/20 06:06:25;;;;;;;12.13;7.25;;;1.50;99.90;;;;;;5114501;27;20130;-82
2022/11/20 06:08:51;;;;;;;12.73;7.55;;;1.50;99.90;;;;;;5112728;27;20078;-82
2022/11/20 06:11:17;;;;;;;9.45;6.22;;;1.50;99.90;;;;;;5097229;27;20091;-82
2022/11/20 06:13:43;;;;;;;12.90;7.05;;;1.50;99.90;;;;;;5112357;27;20087;-82
2022/11/20 06:16:10;;;;;;;11.68;7.13;;;1.50;99.90;;;;;;5130638;27;20039;-82
2022/11/20 06:18:37;;;;;;;10.88;6.05;;;1.50;99.90;;;;;;5130401;27;20548;-82
2022/11/20 06:21:14;;;;;;;10.38;6.75;;;1.50;99.90;;;;;;5113179;27;20522;-82
2022/11/20 06:23:40;;;;;;;10.90;6.25;;;1.50;99.90;;;;;;5114267;27;20422;-81
2022/11/20 06:26:09;;;;;;;10.63;6.10;;;1.50;99.90;;;;;;5111834;27;20038;-82
2022/11/20 06:28:35;;;;;;;9.13;6.35;;;1.60;99.90;;;;;;5114063;27;20130;-82
2022/11/20 06:31:01;;;;;;;12.32;6.57;;;1.50;99.90;;;;;;5112710;27;20130;-82
2022/11/20 06:33:27;;;;;;;9.52;6.00;;;1.60;99.90;;;;;;5113701;27;20043;-81
2022/11/20 06:35:55;;;;;;;9.18;5.93;;;1.60;99.90;;;;;;5113326;27;20459;-81
2022/11/20 06:38:21;;;;;;;10.57;6.68;;;1.90;99.90;;;;;;5129487;27;20081;-81
2022/11/20 06:40:46;;;;;;;12.27;5.90;;;1.60;99.90;;;;;;5113931;27;20038;-81
2022/11/20 06:43:12;;;;;;;9.35;6.38;;;1.60;99.90;;;;;;5111022;27;20047;-81
2022/11/20 06:45:38;;;;;;;10.40;6.88;;;1.60;99.90;;;;;;5113931;27;20383;-82
2022/11/20 06:48:03;;;;;;;9.07;6.43;;;1.60;99.90;;;;;;5094843;27;20045;-83
2022/11/20 06:50:29;;;;;;;12.50;6.38;;;1.60;99.90;;;;;;5113263;27;20046;-82
2022/11/20 06:52:55;;;;;;;9.30;6.13;;;1.60;99.90;;;;;;5112169;27;20039;-83
2022/11/20 06:55:21;;;;;;;10.52;6.53;;;1.60;99.90;;;;;;5078059;27;20122;-83
2022/11/20 06:57:47;;;;;;;10.30;6.25;;;1.70;99.90;;;;;;5130178;27;20054;-83
2022/11/20 07:00:13;;;;;;;11.05;7.18;;;1.70;99.90;;;;;;5111126;27;20056;-82
2022/11/20 07:02:39;;;;;;;11.82;6.38;;;1.70;99.90;;;;;;5112926;27;20051;-83
2022/11/20 07:05:04;;;;;;;9.48;6.50;;;1.70;99.90;;;;;;5127465;27;20061;-83
2022/11/20 07:07:30;;;;;;;8.85;6.03;;;1.70;99.90;;;;;;5147995;27;20050;-83
2022/11/20 07:09:56;;;;;;;10.95;6.72;;;1.70;99.90;;;;;;5110890;27;20035;-83
2022/11/20 07:12:21;;;;;;;10.10;6.47;;;1.80;99.90;;;;;;5129384;27;20050;-83
2022/11/20 07:14:47;;;;;;;9.75;6.78;;;1.80;99.90;;;;;;5128607;27;20046;-83
2022/11/20 07:17:13;;;;;;;10.30;6.93;;;1.80;99.90;;;;;;5094774;27;20061;-83
2022/11/20 07:19:38;;;;;;;11.60;6.70;;;1.80;99.90;;;;;;5112354;27;20508;-82
2022/11/20 07:22:04;;;;;;;13.18;7.30;;;2.30;99.90;;;;;;5093187;27;20042;-83
2022/11/20 07:24:30;;;;;;;10.82;6.00;;;1.80;99.90;;;;;;5112530;27;20038;-83
2022/11/20 07:26:55;;;;;;;11.38;7.13;;;1.80;99.90;;;;;;5110473;27;20035;-83
2022/11/20 07:29:21;;;;;;;12.20;8.10;;;1.80;99.90;;;;;;5111837;27;20065;-83
2022/11/20 07:31:47;;;;;;;14.10;7.07;;;1.90;99.90;;;;;;5078712;27;20075;-83
2022/11/20 07:34:12;;;;;;;9.63;7.13;;;1.90;99.90;;;;;;5077284;27;20074;-83
2022/11/20 07:36:39;;;;;;;10.13;6.57;;;1.90;99.90;;;;;;5112809;27;20046;-83
2022/11/20 07:39:04;;;;;;;11.95;6.82;;;1.90;99.90;;;;;;5109968;27;20035;-83
2022/11/20 07:41:30;;;;;;;13.88;7.85;;;1.90;99.90;;;;;;5095934;27;20049;-83
2022/11/20 07:43:56;;;;;;;11.35;7.00;;;2.00;99.90;;;;;;5110339;27;20411;-83
2022/11/20 07:46:21;;;;;;;10.07;6.75;;;1.90;99.90;;;;;;5129191;27;20050;-84
2022/11/20 07:48:47;;;;;;;12.48;7.45;;;1.90;99.90;;;;;;5111188;27;20038;-82
2022/11/20 07:51:13;;;;;;;11.13;7.32;;;1.90;99.90;;;;;;5093471;27;20516;-81
2022/11/20 07:53:39;;;;;;;13.27;7.53;;;1.90;99.90;;;;;;5078127;27;20457;-82
2022/11/20 07:56:05;;;;;;;10.65;7.38;;;2.90;99.90;;;;;;5126443;27;20099;-83
2022/11/20 07:58:32;;;;;;;11.27;6.82;;;2.00;99.90;;;;;;5111701;27;20134;-83
2022/11/20 08:01:03;;;;;;;10.35;6.40;;;1.90;99.90;;;;;;5126029;27;20055;-81
2022/11/20 08:03:29;;;;;;;12.77;6.97;;;1.90;99.90;;;;;;5128737;27;20097;-81
2022/11/20 08:06:00;;;;;;;11.75;7.20;;;1.10;99.90;;;;;;5111036;27;20082;-80
2022/11/20 08:08:29;;;;;;;9.90;6.13;;;2.00;99.90;;;;;;5128416;27;20039;-80
2022/11/20 08:14:11;;;;;;;9.70;6.60;;;2.00;99.90;;;;;;5095652;27;20040;-80
2022/11/20 08:16:26;;;;;;;10.95;6.82;;;2.00;99.90;;;;;;5129426;27;20044;-82
2022/11/20 08:18:52;;;;;;;10.43;7.03;;;2.00;99.90;;;;;;5110900;27;20489;-82
2022/11/20 08:21:17;;;;;;;10.70;6.60;;;2.10;99.90;;;;;;5110414;27;20054;-80
2022/11/20 08:23:43;;;;;;;10.82;6.75;;;2.10;99.90;;;;;;5094454;27;20074;-83
2022/11/20 08:26:09;;;;;;;10.60;7.35;;;2.10;99.90;;;;;;5098050;27;20044;-82
2022/11/20 08:28:34;;;;;;;14.90;7.10;;;2.60;99.90;;;;;;5101538;27;20095;-81
2022/11/20 08:31:01;;;;;;;10.20;7.25;;;2.10;99.90;;;;;;5098642;27;20054;-83
2022/11/20 08:33:28;;;;;;;10.35;6.75;;;2.10;99.90;;;;;;5118262;27;20196;-83
2022/11/20 08:35:53;;;;;;;15.10;7.38;;;2.60;99.90;;;;;;5117260;27;20502;-83
2022/11/20 08:38:19;;;;;;;12.15;7.40;;;2.20;99.90;;;;;;5100931;27;20050;-83
2022/11/20 08:41:23;;;;;;;9.98;7.03;;;2.10;99.90;;;;;;5101295;27;20130;-84
2022/11/20 08:43:33;;;;;;;14.88;9.20;;;2.30;99.90;;;;;;5105014;27;20046;-83
2022/11/20 08:45:59;;;;;;;10.88;7.32;;;2.30;99.90;;;;;;5101229;27;20125;-84
2022/11/20 08:48:24;;;;;;;9.80;6.25;;;2.30;99.90;;;;;;5116880;27;20053;-82
2022/11/20 08:50:50;;;;;;;8.43;5.55;;;2.30;99.90;;;;;;5118471;27;20074;-84
2022/11/20 08:53:15;;;;;;;10.32;6.53;;;2.30;99.90;;;;;;5100466;27;20073;-83
2022/11/20 08:55:41;;;;;;;11.98;6.63;;;2.30;99.90;;;;;;5100204;27;20398;-82
2022/11/20 08:58:07;;;;;;;9.93;6.95;;;2.30;99.90;;;;;;5117936;27;20130;-82
2022/11/20 09:00:33;;;;;;;12.32;7.30;;;2.30;99.90;;;;;;5132999;27;20094;-83
2022/11/20 09:03:00;;;;;;;10.27;6.70;;;2.40;99.90;;;;;;5118377;27;20074;-83
2022/11/20 09:05:26;;;;;;;12.73;7.53;;;3.50;99.90;;;;;;5132552;27;20046;-83
2022/11/20 09:07:56;;;;;;;12.07;7.60;;;2.40;99.90;;;;;;5118058;27;20046;-82
2022/11/20 09:10:22;;;;;;;8.90;6.05;;;3.50;99.90;;;;;;5116162;27;20568;-82
2022/11/20 09:12:51;;;;;;;11.48;6.30;;;2.40;99.90;;;;;;5134338;27;20229;-83
2022/11/20 09:15:17;;;;;;;10.82;6.93;;;2.40;99.90;;;;;;5117398;27;20054;-83
2022/11/20 09:17:51;;;;;;;11.20;6.88;;;3.60;99.90;;;;;;5132180;27;20035;-83
2022/11/20 09:20:17;;;;;;;10.40;6.63;;;2.50;99.90;;;;;;5117834;27;20091;-83
2022/11/20 09:22:42;;;;;;;10.10;6.80;;;2.50;99.90;;;;;;5115101;27;20039;-83
2022/11/20 09:25:08;;;;;;;10.20;6.88;;;2.50;99.90;;;;;;5135284;27;20035;-83
2022/11/20 09:27:35;;;;;;;12.52;6.90;;;2.50;99.90;;;;;;5116432;27;20089;-83
2022/11/20 09:30:02;;;;;;;12.52;7.47;;;2.50;99.90;;;;;;5116560;27;20062;-83
2022/11/20 09:32:27;;;;;;;10.88;7.57;;;2.50;99.90;;;;;;5134430;27;20050;-83
2022/11/20 09:34:53;;;;;;;12.38;7.32;;;2.50;99.90;;;;;;5132134;27;20039;-83
2022/11/20 09:37:19;;;;;;;9.23;6.75;;;2.50;99.90;;;;;;5114546;27;20101;-84
2022/11/20 09:39:44;;;;;;;10.88;6.90;;;2.50;99.90;;;;;;5128573;27;20047;-84
2022/11/20 09:42:41;;;;;;;9.32;6.72;;;2.50;99.90;;;;;;5113577;27;20039;-83
2022/11/20 09:45:44;;;;;;;9.45;6.47;;;2.50;99.90;;;;;;5113448;27;20138;-84
2022/11/20 09:48:18;;;;;;;13.52;7.88;;;2.60;99.90;;;;;;5111617;27;20461;-83
2022/11/20 09:51:00;;;;;;;11.82;7.55;;;2.60;99.90;;;;;;5114350;27;20042;-84
2022/11/20 09:53:32;;;;;;;11.40;7.57;;;2.60;99.90;;;;;;5130038;27;20043;-83
2022/11/20 09:56:02;;;;;;;12.23;7.40;;;2.70;99.90;;;;;;5113104;27;20095;-84
2022/11/20 09:59:03;;;;;;;13.50;6.65;;;2.70;99.90;;;;;;5113733;27;20656;-84
2022/11/20 10:01:34;;;;;;;11.52;6.95;;;2.80;99.90;;;;;;5075296;27;20402;-84
2022/11/20 10:04:13;;;;;;;8.68;6.63;;;2.80;99.90;;;;;;5113828;27;20039;-83
2022/11/20 10:07:03;;;;;;;10.18;6.55;;;2.80;99.90;;;;;;5113100;27;20572;-83
2022/11/20 10:09:34;;;;;;;10.82;6.95;;;2.80;99.90;;;;;;5111361;27;20043;-83
2022/11/20 10:12:12;;;;;;;10.35;7.45;;;2.80;99.90;;;;;;5113597;27;20046;-83
2022/11/20 10:14:49;;;;;;;10.15;6.70;;;2.80;99.90;;;;;;5129054;27;20050;-84
2022/11/20 10:17:46;;;;;;;11.45;6.28;;;2.90;99.90;;;;;;5112759;27;20050;-84
2022/11/20 10:20:29;;;;;;;11.73;6.78;;;2.90;99.90;;;;;;5130493;27;20089;-83
2022/11/20 10:23:13;;;;;;;10.63;7.25;;;2.90;99.90;;;;;;5128279;27;20091;-84
2022/11/20 10:25:42;;;;;;;;;;;3.00;99.90;;;;;;5113250;27;20047;-84
2022/11/20 10:28:40;;;;;;;9.73;6.78;;;3.00;99.90;;;;;;5112506;27;20005;-84
2022/11/20 10:31:23;;;;;;;12.93;6.57;;;3.10;99.90;;;;;;5110951;27;20054;-84
2022/11/20 10:33:53;;;;;;;9.85;6.13;;;3.10;99.90;;;;;;5130580;27;20187;-85
2022/11/20 10:36:25;;;;;;;9.43;6.25;;;3.10;99.90;;;;;;5112320;27;20088;-84
2022/11/20 10:39:17;;;;;;;9.88;5.85;;;2.60;99.90;;;;;;5112281;27;20042;-83
2022/11/20 10:41:49;;;;;;;10.02;5.32;;;3.30;99.90;;;;;;5113498;27;20031;-82
2022/11/20 10:47:10;;;;;;;9.93;6.38;;;3.40;99.90;;;;;;5130108;27;20401;-86
2022/11/20 10:49:36;;;;;;;9.82;6.35;;;3.50;99.90;;;;;;5111263;27;20035;-86
2022/11/20 10:52:23;;;;;;;11.57;6.72;;;3.60;99.90;;;;;;5094790;27;20110;-85
2022/11/20 10:55:10;;;;;;;10.85;6.95;;;3.50;99.90;;;;;;5113395;27;20038;-86
2022/11/20 10:57:45;;;;;;;11.20;6.65;;;3.60;99.90;;;;;;5128219;27;20095;-83
2022/11/20 11:00:13;;;;;;;9.80;6.30;;;3.70;99.90;;;;;;5128718;27;20485;-85
2022/11/20 11:02:47;;;;;;;9.10;6.18;;;3.70;99.90;;;;;;5112437;27;20125;-83
2022/11/20 11:05:27;;;;;;;10.40;6.32;;;3.80;99.90;;;;;;5110728;27;20342;-84
2022/11/20 11:07:57;;;;;;;9.27;5.78;;;3.90;99.90;;;;;;5129970;27;20481;-81
2022/11/20 11:10:53;;;;;;;8.63;5.38;;;3.90;99.90;;;;;;5128356;27;20413;-83
2022/11/20 11:13:24;;;;;;;12.05;5.53;;;3.90;99.90;;;;;;5127844;27;20098;-83
2022/11/20 11:15:51;;;;;;;11.30;6.32;;;4.00;99.90;;;;;;5112080;27;20082;-82
2022/11/20 11:18:29;;;;;;;8.32;5.72;;;4.00;99.90;;;;;;5092835;27;20043;-83
2022/11/20 11:20:57;;;;;;;9.43;6.03;;;3.70;99.90;;;;;;5112152;27;20091;-84
2022/11/20 11:23:43;;;;;;;8.93;5.95;;;4.00;99.90;;;;;;5093849;27;20049;-82
2022/11/20 11:26:20;;;;;;;8.60;5.95;;;4.00;99.90;;;;;;5127960;27;20061;-84
2022/11/20 11:29:00;;;;;;;8.73;5.78;;;3.90;99.90;;;;;;5112072;27;20066;-82
2022/11/20 11:31:43;;;;;;;9.52;5.75;;;3.90;99.90;;;;;;5110043;27;20054;-84
2022/11/20 11:34:17;;;;;;;8.15;5.43;;;3.80;99.90;;;;;;5095529;27;20095;-84
2022/11/20 11:36:56;;;;;;;8.32;5.80;;;3.80;99.90;;;;;;5128516;27;20091;-83
2022/11/20 11:39:23;;;;;;;7.70;5.35;;;3.90;99.90;;;;;;5127422;27;20255;-83
2022/11/20 11:41:49;;;;;;;9.02;6.05;;;3.70;99.90;;;;;;5095421;27;20572;-84
2022/11/20 11:47:06;;;;;;;8.40;5.18;;;3.70;99.90;;;;;;5128862;27;20482;-82
2022/11/20 11:49:32;;;;;;;8.82;5.32;;;3.60;99.90;;;;;;5147205;27;20049;-81
2022/11/20 11:52:20;;;;;;;9.05;5.78;;;3.50;99.90;;;;;;5146134;27;20047;-82
2022/11/20 11:55:05;;;;;;;8.57;5.95;;;3.90;99.90;;;;;;5111741;27;20050;-82
2022/11/20 11:57:37;;;;;;;8.10;5.15;;;3.40;99.90;;;;;;5093431;27;20035;-82
2022/11/20 12:00:09;;;;;;;7.88;5.90;;;3.30;99.90;;;;;;5111278;27;20501;-82
2022/11/20 12:02:44;;;;;;;7.20;5.07;;;3.30;99.90;;;;;;5111992;27;20430;-82
2022/11/20 12:05:36;;;;;;;11.38;5.75;;;3.30;99.90;;;;;;5126813;27;20045;-81
2022/11/20 12:08:24;;;;;;;8.55;5.10;;;3.20;99.90;;;;;;5112338;27;20442;-81
2022/11/20 12:11:11;;;;;;;9.63;5.65;;;3.20;99.90;;;;;;5127737;27;20046;-82
2022/11/20 12:13:58;;;;;;;10.52;5.55;;;3.30;99.90;;;;;;5127207;27;20081;-82
2022/11/20 12:16:24;;;;;;;7.45;5.13;;;3.30;99.90;;;;;;5112112;27;20042;-81
2022/11/20 12:18:52;;;;;;;8.00;5.45;;;3.40;99.90;;;;;;5126842;27;20097;-82
2022/11/20 12:21:20;;;;;;;8.25;5.18;;;3.50;99.90;;;;;;5128443;27;20047;-81
2022/11/20 12:23:58;;;;;;;8.52;5.45;;;4.30;99.90;;;;;;5127261;27;20061;-81
2022/11/20 12:26:45;;;;;;;8.25;4.82;;;3.60;99.90;;;;;;5126733;27;20051;-82
2022/11/20 12:29:47;;;;;;;7.18;4.82;;;3.80;99.90;;;;;;5128730;27;20054;-82
2022/11/20 12:32:39;;;;;;;8.60;4.60;;;3.90;99.90;;;;;;5110656;27;20058;-82
2022/11/20 12:35:37;;;;;;;5.65;3.97;;;3.90;99.90;;;;;;5096123;27;20463;-82
2022/11/20 12:38:39;;;;;;;7.30;4.28;;;4.10;99.90;;;;;;5024306;27;20133;-82
2022/11/20 12:47:36;;;;;;;5.15;3.55;;;4.30;99.90;;;;;;5128577;27;20435;-83
2022/11/20 12:50:39;;;;;;;7.35;3.70;;;4.30;99.90;;;;;;5128737;27;20043;-81
2022/11/20 12:53:20;;;;;;;6.60;3.38;;;4.30;99.90;;;;;;5126230;27;20039;-81
2022/11/20 12:56:24;;;;;;;6.93;4.25;;;4.20;99.90;;;;;;5111035;27;20141;-82
2022/11/20 12:59:08;;;;;;;6.65;3.55;;;4.20;99.90;;;;;;5009350;28;20049;-82
2022/11/20 13:01:50;;;;;;;5.75;3.45;;;4.20;99.90;;;;;;5100287;27;20080;-81
2022/11/20 13:04:50;;;;;;;5.82;3.30;;;4.20;99.90;;;;;;5127961;27;20047;-81
2022/11/20 13:07:17;;;;;;;5.20;2.80;;;4.20;99.90;;;;;;5128247;27;20087;-83
2022/11/20 13:09:48;;;;;;;6.05;3.60;;;4.30;99.90;;;;;;5108925;27;20078;-83
2022/11/20 13:12:24;;;;;;;6.20;3.58;;;5.20;99.90;;;;;;5112485;27;20179;-84
2022/11/20 13:15:23;;;;;;;14.57;3.72;;;4.70;99.90;;;;;;5130537;27;20106;-84
2022/11/20 13:18:00;;;;;;;5.78;3.50;;;4.20;99.90;;;;;;5131293;27;20046;-84
2022/11/20 13:20:27;;;;;;;6.38;3.17;;;4.80;99.90;;;;;;5132281;27;20042;-85
2022/11/20 13:22:54;;;;;;;5.32;3.35;;;4.30;99.90;;;;;;5112170;27;20085;-85
2022/11/20 13:25:34;;;;;;;4.43;2.70;;;4.40;99.90;;;;;;5131054;27;20595;-83
2022/11/20 13:28:19;;;;;;;5.25;3.13;;;4.40;99.90;;;;;;5130051;27;20501;-84